Waite Park, MN (56387)

3:57 PM CDT on August 04, 2015 (GMT -0500)
Quail Meadows | | Change Station
CLOSE
Current Station
Personal Weather Station
Location: St Cloud, MN
Elevation: 1039 ft
Nearby Weather Stations

Elev 1039 ft 45.58 °N, 94.22 °W | Updated 4 minutes ago

Clear
Clear
81.0 °F
Feels Like 81 °F
N
2.7
Wind Variable Wind from West

Today
High -- | Low -- °F
--% Chance of Precip.
Yesterday
High -- | Low -- °F
Precip. -- in
6:03 AM 8:41 PM
Waning Gibbous, 74% visible
Pressure 30.00 in
Visibility 10.0 miles
Clouds Scattered Clouds 7000 ft
Heat Index 81 °F
Dew Point 54 °F
Humidity 39%
Rainfall 0.00 in
Snow Depth Not available.
UV 6 out of 12
Pollen 6.80 out of 12
Air Quality Not available.
Flu Activity Not available.
METAR KSTC 042053Z 32005KT 10SM SCT070 27/09 A2998 RMK AO2 SLP158 T02670089 55004

More Conditions Fewer Conditions

Pressure 30.00 in
Visibility 10.0 miles
Clouds Scattered Clouds 7000 ft
Heat Index 81 °F
Dew Point 54 °F
Humidity 39%
Rainfall 0.00 in
Snow Depth Not available.
UV 6 out of 12
Pollen 6.80 out of 12
Air Quality Not available.
Flu Activity Not available.
METAR KSTC 042053Z 32005KT 10SM SCT070 27/09 A2998 RMK AO2 SLP158 T02670089 55004

More Conditions Fewer Conditions

10-Day Weather Forecast

×

Almanac

Astronomy

Aug. 04, 2015 Rise Set
Actual Time
Civil Twilight
Nautical Twilight
Astronomical Twilight
Moon
Length of Visible Light
Length of Day
Tomorrow will be .
, % of the Moon is Illuminated

Today's Extremes

State Highs State Lows

Community

WunderPhotos

Upload Photos

1,843,974 photos uploaded!

WunderBlogs® & News

Nearby

Air Quality

  Air Quality AQ Index Pollutant
Not available.

Snow Depth

Station Depth Elevation

Earthquake Activity

City Distance Mag. Time & Date
Minimum magnitude displayed is 2.5.

Coastal Water Temperatures

Place Temperature

Stations

Nearby Weather Stations

Station Location Temp. Windchill Dew Point Humidity Wind Precip. Elev Updated Type